Noatak Airport Noatak US
ICAO: PAWN
IATA:
Category: Medium
Scheduled Services:

Elevation: 88 ft
TransAlt. 18000 ft.

Airport Communications:
AWOS 3:135.75
ANCHORAGE CNTR:119.2
KOTZEBUE RDO:122.4
CTAF/UNICOM:122.8

PAWN Zoom In..

If you have problems with the map follow the link
https://www.worldairports.se/pages/airport.php?
ICAO=PAWN

Runways:

(A) RW 01 length 3992 ft width 60 ft
---- / hdg 7

(B) RW 19 length 3992 ft width 60 ft
---- / hdg 187

Location; PAWN
Day. 23 / Time. 16.56 Zulu
* Altimeter: 29.52
* Temperature: -01° c. -30.2°f.
* Wind from: 010° Speed 11 kn.
Dewpoint: -03° c.
Visibility: 10 Statute Miles.
Clouds: Few 7000 ft.
Clouds: Scattered 9000 ft.

PAWN 231656Z AUTO 01011KT 10SM FEW070 SCT090 M01/M03 A2952 RMK AO2 SLP012 T10111028 FZRANO


Wind From 010°
Speed 11 kn.

 
 
jpsmedia.com for Web Design worldairports.se 2018   terms of use